sensor_id;sensor_type;location;lat;lon;timestamp;P1;durP1;ratioP1;P2;durP2;ratioP2
11303;SDS011;5707;49.588;12.148;2023-02-01T00:00:14;1.85;;;1.70;;
11303;SDS011;5707;49.588;12.148;2023-02-01T00:02:40;1.85;;;1.70;;
11303;SDS011;5707;49.588;12.148;2023-02-01T00:05:07;2.35;;;2.15;;
11303;SDS011;5707;49.588;12.148;2023-02-01T00:07:34;1.85;;;1.75;;
11303;SDS011;5707;49.588;12.148;2023-02-01T00:10:00;2.08;;;1.98;;
11303;SDS011;5707;49.588;12.148;2023-02-01T00:12:25;2.03;;;1.92;;
11303;SDS011;5707;49.588;12.148;2023-02-01T00:14:51;2.50;;;2.30;;
11303;SDS011;5707;49.588;12.148;2023-02-01T00:17:17;2.10;;;2.00;;
11303;SDS011;5707;49.588;12.148;2023-02-01T00:19:42;3.67;;;2.00;;
11303;SDS011;5707;49.588;12.148;2023-02-01T00:22:08;2.22;;;2.03;;
11303;SDS011;5707;49.588;12.148;2023-02-01T00:24:33;1.95;;;1.77;;
11303;SDS011;5707;49.588;12.148;2023-02-01T00:26:59;2.35;;;2.15;;
11303;SDS011;5707;49.588;12.148;2023-02-01T00:29:24;2.45;;;2.33;;
11303;SDS011;5707;49.588;12.148;2023-02-01T00:31:51;2.15;;;2.05;;
11303;SDS011;5707;49.588;12.148;2023-02-01T00:34:17;2.53;;;2.25;;
11303;SDS011;5707;49.588;12.148;2023-02-01T00:36:43;2.30;;;2.20;;
11303;SDS011;5707;49.588;12.148;2023-02-01T00:39:09;2.35;;;2.15;;
11303;SDS011;5707;49.588;12.148;2023-02-01T00:41:35;1.98;;;1.88;;
11303;SDS011;5707;49.588;12.148;2023-02-01T00:44:01;2.72;;;2.00;;
11303;SDS011;5707;49.588;12.148;2023-02-01T00:46:27;1.85;;;1.70;;
11303;SDS011;5707;49.588;12.148;2023-02-01T00:48:53;2.22;;;1.58;;
11303;SDS011;5707;49.588;12.148;2023-02-01T00:51:20;2.20;;;1.88;;
11303;SDS011;5707;49.588;12.148;2023-02-01T00:53:48;1.85;;;1.75;;
11303;SDS011;5707;49.588;12.148;2023-02-01T00:56:14;1.90;;;1.80;;
11303;SDS011;5707;49.588;12.148;2023-02-01T00:58:40;1.65;;;1.55;;
11303;SDS011;5707;49.588;12.148;2023-02-01T01:03:37;1.85;;;1.75;;
11303;SDS011;5707;49.588;12.148;2023-02-01T01:06:08;1.60;;;1.50;;
11303;SDS011;5707;49.588;12.148;2023-02-01T01:08:39;1.70;;;1.60;;
11303;SDS011;5707;49.588;12.148;2023-02-01T01:11:06;1.80;;;1.70;;
11303;SDS011;5707;49.588;12.148;2023-02-01T01:13:40;1.48;;;1.38;;
11303;SDS011;5707;49.588;12.148;2023-02-01T01:16:06;1.60;;;1.50;;
11303;SDS011;5707;49.588;12.148;2023-02-01T01:18:33;1.60;;;1.50;;
11303;SDS011;5707;49.588;12.148;2023-02-01T01:21:00;1.48;;;1.27;;
11303;SDS011;5707;49.588;12.148;2023-02-01T01:23:26;1.50;;;1.40;;
11303;SDS011;5707;49.588;12.148;2023-02-01T01:25:52;1.80;;;1.27;;
11303;SDS011;5707;49.588;12.148;2023-02-01T01:28:18;1.30;;;1.20;;
11303;SDS011;5707;49.588;12.148;2023-02-01T01:30:43;1.13;;;1.10;;
11303;SDS011;5707;49.588;12.148;2023-02-01T01:33:09;1.48;;;1.40;;
11303;SDS011;5707;49.588;12.148;2023-02-01T01:35:34;1.00;;;1.00;;
11303;SDS011;5707;49.588;12.148;2023-02-01T01:38:00;0.80;;;0.80;;
11303;SDS011;5707;49.588;12.148;2023-02-01T01:40:27;1.10;;;1.10;;
11303;SDS011;5707;49.588;12.148;2023-02-01T01:42:54;2.05;;;1.23;;
11303;SDS011;5707;49.588;12.148;2023-02-01T01:45:25;1.30;;;1.20;;
11303;SDS011;5707;49.588;12.148;2023-02-01T01:47:54;1.10;;;1.00;;
11303;SDS011;5707;49.588;12.148;2023-02-01T01:50:30;0.82;;;0.82;;
11303;SDS011;5707;49.588;12.148;2023-02-01T01:52:59;1.08;;;0.95;;
11303;SDS011;5707;49.588;12.148;2023-02-01T01:55:27;1.20;;;1.17;;
11303;SDS011;5707;49.588;12.148;2023-02-01T01:58:00;1.40;;;1.30;;
11303;SDS011;5707;49.588;12.148;2023-02-01T02:00:30;1.55;;;1.25;;
11303;SDS011;5707;49.588;12.148;2023-02-01T02:03:11;1.42;;;1.30;;
11303;SDS011;5707;49.588;12.148;2023-02-01T02:05:50;1.38;;;1.27;;
11303;SDS011;5707;49.588;12.148;2023-02-01T02:08:19;1.63;;;1.52;;
11303;SDS011;5707;49.588;12.148;2023-02-01T02:10:47;1.55;;;1.45;;
11303;SDS011;5707;49.588;12.148;2023-02-01T02:13:31;1.73;;;1.63;;
11303;SDS011;5707;49.588;12.148;2023-02-01T02:24:14;1.90;;;1.80;;
11303;SDS011;5707;49.588;12.148;2023-02-01T02:27:00;2.47;;;2.28;;
11303;SDS011;5707;49.588;12.148;2023-02-01T02:38:34;2.47;;;2.25;;
11303;SDS011;5707;49.588;12.148;2023-02-01T02:44:11;2.13;;;1.88;;
11303;SDS011;5707;49.588;12.148;2023-02-01T02:47:06;2.30;;;1.95;;
11303;SDS011;5707;49.588;12.148;2023-02-01T02:50:02;1.67;;;1.58;;
11303;SDS011;5707;49.588;12.148;2023-02-01T02:52:51;1.52;;;1.42;;
11303;SDS011;5707;49.588;12.148;2023-02-01T02:55:42;1.90;;;1.80;;
11303;SDS011;5707;49.588;12.148;2023-02-01T02:58:09;1.60;;;1.50;;
11303;SDS011;5707;49.588;12.148;2023-02-01T03:00:56;1.80;;;1.70;;
11303;SDS011;5707;49.588;12.148;2023-02-01T03:03:40;1.42;;;1.33;;
11303;SDS011;5707;49.588;12.148;2023-02-01T03:06:26;1.98;;;1.88;;
11303;SDS011;5707;49.588;12.148;2023-02-01T03:08:53;2.05;;;1.85;;
11303;SDS011;5707;49.588;12.148;2023-02-01T03:11:22;2.25;;;1.50;;
11303;SDS011;5707;49.588;12.148;2023-02-01T03:14:09;1.65;;;1.55;;
11303;SDS011;5707;49.588;12.148;2023-02-01T03:16:41;1.50;;;1.40;;
11303;SDS011;5707;49.588;12.148;2023-02-01T03:19:22;2.33;;;1.60;;
11303;SDS011;5707;49.588;12.148;2023-02-01T03:21:53;2.97;;;1.48;;
11303;SDS011;5707;49.588;12.148;2023-02-01T03:27:13;1.38;;;1.27;;
11303;SDS011;5707;49.588;12.148;2023-02-01T03:29:59;1.98;;;1.65;;
11303;SDS011;5707;49.588;12.148;2023-02-01T03:32:43;2.03;;;1.83;;
11303;SDS011;5707;49.588;12.148;2023-02-01T03:38:34;2.40;;;1.88;;
11303;SDS011;5707;49.588;12.148;2023-02-01T03:41:11;1.92;;;1.73;;
11303;SDS011;5707;49.588;12.148;2023-02-01T03:43:42;2.05;;;1.67;;
11303;SDS011;5707;49.588;12.148;2023-02-01T03:46:28;2.95;;;2.13;;
11303;SDS011;5707;49.588;12.148;2023-02-01T03:48:59;1.83;;;1.70;;
11303;SDS011;5707;49.588;12.148;2023-02-01T03:51:27;2.55;;;1.80;;
11303;SDS011;5707;49.588;12.148;2023-02-01T03:53:54;3.00;;;1.73;;
11303;SDS011;5707;49.588;12.148;2023-02-01T03:56:22;2.00;;;1.85;;
11303;SDS011;5707;49.588;12.148;2023-02-01T03:58:50;2.42;;;1.75;;
11303;SDS011;5707;49.588;12.148;2023-02-01T04:01:25;2.40;;;1.60;;
11303;SDS011;5707;49.588;12.148;2023-02-01T04:03:52;1.65;;;1.55;;
11303;SDS011;5707;49.588;12.148;2023-02-01T04:06:18;2.03;;;1.77;;
11303;SDS011;5707;49.588;12.148;2023-02-01T04:08:44;1.83;;;1.73;;
11303;SDS011;5707;49.588;12.148;2023-02-01T04:11:10;2.95;;;1.77;;
11303;SDS011;5707;49.588;12.148;2023-02-01T04:13:35;1.88;;;1.42;;
11303;SDS011;5707;49.588;12.148;2023-02-01T04:16:01;2.25;;;2.05;;
11303;SDS011;5707;49.588;12.148;2023-02-01T04:18:27;2.80;;;1.73;;
11303;SDS011;5707;49.588;12.148;2023-02-01T04:20:52;2.42;;;2.10;;
11303;SDS011;5707;49.588;12.148;2023-02-01T04:23:18;2.83;;;1.90;;
11303;SDS011;5707;49.588;12.148;2023-02-01T04:25:43;1.95;;;1.83;;
11303;SDS011;5707;49.588;12.148;2023-02-01T04:28:09;2.25;;;2.08;;
11303;SDS011;5707;49.588;12.148;2023-02-01T04:30:35;2.60;;;1.98;;
11303;SDS011;5707;49.588;12.148;2023-02-01T04:33:00;1.90;;;1.80;;
11303;SDS011;5707;49.588;12.148;2023-02-01T04:35:28;2.22;;;2.03;;
11303;SDS011;5707;49.588;12.148;2023-02-01T04:37:54;3.35;;;1.73;;
11303;SDS011;5707;49.588;12.148;2023-02-01T04:40:19;2.38;;;2.10;;
11303;SDS011;5707;49.588;12.148;2023-02-01T04:42:45;2.75;;;1.90;;
11303;SDS011;5707;49.588;12.148;2023-02-01T04:45:10;1.75;;;1.63;;
11303;SDS011;5707;49.588;12.148;2023-02-01T04:47:36;2.35;;;1.63;;
11303;SDS011;5707;49.588;12.148;2023-02-01T04:50:01;1.50;;;1.38;;
11303;SDS011;5707;49.588;12.148;2023-02-01T04:52:27;1.65;;;1.55;;
11303;SDS011;5707;49.588;12.148;2023-02-01T04:54:53;1.70;;;1.60;;
11303;SDS011;5707;49.588;12.148;2023-02-01T04:57:22;2.08;;;1.88;;
11303;SDS011;5707;49.588;12.148;2023-02-01T04:59:48;2.03;;;1.83;;
11303;SDS011;5707;49.588;12.148;2023-02-01T05:02:13;2.17;;;1.98;;
11303;SDS011;5707;49.588;12.148;2023-02-01T05:04:39;1.98;;;1.75;;
11303;SDS011;5707;49.588;12.148;2023-02-01T05:07:04;2.00;;;1.90;;
11303;SDS011;5707;49.588;12.148;2023-02-01T05:09:30;2.28;;;1.88;;
11303;SDS011;5707;49.588;12.148;2023-02-01T05:11:55;2.30;;;2.10;;
11303;SDS011;5707;49.588;12.148;2023-02-01T05:14:39;2.58;;;2.00;;
11303;SDS011;5707;49.588;12.148;2023-02-01T05:17:05;2.65;;;2.20;;
11303;SDS011;5707;49.588;12.148;2023-02-01T05:19:31;2.08;;;1.90;;
11303;SDS011;5707;49.588;12.148;2023-02-01T05:21:56;1.85;;;1.75;;
11303;SDS011;5707;49.588;12.148;2023-02-01T05:24:22;3.17;;;2.22;;
11303;SDS011;5707;49.588;12.148;2023-02-01T05:26:48;2.45;;;2.25;;
11303;SDS011;5707;49.588;12.148;2023-02-01T05:29:14;1.70;;;1.60;;
11303;SDS011;5707;49.588;12.148;2023-02-01T05:31:41;2.53;;;2.00;;
11303;SDS011;5707;49.588;12.148;2023-02-01T05:34:07;2.60;;;2.40;;
11303;SDS011;5707;49.588;12.148;2023-02-01T05:36:32;2.25;;;2.00;;
11303;SDS011;5707;49.588;12.148;2023-02-01T05:38:58;1.92;;;1.83;;
11303;SDS011;5707;49.588;12.148;2023-02-01T05:41:24;2.13;;;2.00;;
11303;SDS011;5707;49.588;12.148;2023-02-01T05:43:50;3.60;;;2.05;;
11303;SDS011;5707;49.588;12.148;2023-02-01T05:46:15;2.35;;;2.20;;
11303;SDS011;5707;49.588;12.148;2023-02-01T05:48:41;2.05;;;1.95;;
11303;SDS011;5707;49.588;12.148;2023-02-01T05:51:08;2.42;;;2.22;;
11303;SDS011;5707;49.588;12.148;2023-02-01T05:53:34;2.72;;;1.95;;
11303;SDS011;5707;49.588;12.148;2023-02-01T05:56:00;1.85;;;1.75;;
11303;SDS011;5707;49.588;12.148;2023-02-01T05:58:26;1.50;;;1.40;;
11303;SDS011;5707;49.588;12.148;2023-02-01T06:00:52;1.30;;;1.20;;
11303;SDS011;5707;49.588;12.148;2023-02-01T06:03:18;2.95;;;1.52;;
11303;SDS011;5707;49.588;12.148;2023-02-01T06:05:44;1.73;;;1.00;;
11303;SDS011;5707;49.588;12.148;2023-02-01T06:08:10;1.50;;;1.40;;
11303;SDS011;5707;49.588;12.148;2023-02-01T06:10:36;1.13;;;1.02;;
11303;SDS011;5707;49.588;12.148;2023-02-01T06:13:02;1.20;;;1.10;;
11303;SDS011;5707;49.588;12.148;2023-02-01T06:15:28;0.73;;;0.73;;
11303;SDS011;5707;49.588;12.148;2023-02-01T06:17:54;1.10;;;1.10;;
11303;SDS011;5707;49.588;12.148;2023-02-01T06:20:20;1.35;;;1.25;;
11303;SDS011;5707;49.588;12.148;2023-02-01T06:22:45;1.00;;;1.00;;
11303;SDS011;5707;49.588;12.148;2023-02-01T06:25:11;2.13;;;0.98;;
11303;SDS011;5707;49.588;12.148;2023-02-01T06:27:37;1.55;;;1.45;;
11303;SDS011;5707;49.588;12.148;2023-02-01T06:30:03;2.10;;;1.90;;
11303;SDS011;5707;49.588;12.148;2023-02-01T06:32:29;1.50;;;1.40;;
11303;SDS011;5707;49.588;12.148;2023-02-01T06:34:55;1.77;;;1.55;;
11303;SDS011;5707;49.588;12.148;2023-02-01T06:37:22;1.30;;;1.27;;
11303;SDS011;5707;49.588;12.148;2023-02-01T06:39:49;2.35;;;1.77;;
11303;SDS011;5707;49.588;12.148;2023-02-01T06:42:15;1.52;;;1.42;;
11303;SDS011;5707;49.588;12.148;2023-02-01T06:44:41;1.85;;;1.63;;
11303;SDS011;5707;49.588;12.148;2023-02-01T06:47:07;1.63;;;1.52;;
11303;SDS011;5707;49.588;12.148;2023-02-01T06:49:32;1.48;;;1.38;;
11303;SDS011;5707;49.588;12.148;2023-02-01T06:51:58;2.03;;;1.83;;
11303;SDS011;5707;49.588;12.148;2023-02-01T06:54:25;2.25;;;1.50;;
11303;SDS011;5707;49.588;12.148;2023-02-01T06:56:57;2.45;;;1.70;;
11303;SDS011;5707;49.588;12.148;2023-02-01T06:59:22;1.65;;;1.55;;
11303;SDS011;5707;49.588;12.148;2023-02-01T07:01:48;2.47;;;1.83;;
11303;SDS011;5707;49.588;12.148;2023-02-01T07:04:13;2.03;;;1.92;;
11303;SDS011;5707;49.588;12.148;2023-02-01T07:06:39;1.70;;;1.40;;
11303;SDS011;5707;49.588;12.148;2023-02-01T07:09:05;1.73;;;1.63;;
11303;SDS011;5707;49.588;12.148;2023-02-01T07:11:31;2.88;;;1.63;;
11303;SDS011;5707;49.588;12.148;2023-02-01T07:13:57;2.55;;;1.70;;
11303;SDS011;5707;49.588;12.148;2023-02-01T07:16:23;2.42;;;1.85;;
11303;SDS011;5707;49.588;12.148;2023-02-01T07:18:50;2.97;;;1.83;;
11303;SDS011;5707;49.588;12.148;2023-02-01T07:21:16;2.10;;;1.90;;
11303;SDS011;5707;49.588;12.148;2023-02-01T07:23:42;2.78;;;2.17;;
11303;SDS011;5707;49.588;12.148;2023-02-01T07:26:09;3.58;;;1.77;;
11303;SDS011;5707;49.588;12.148;2023-02-01T07:28:41;4.75;;;2.13;;
11303;SDS011;5707;49.588;12.148;2023-02-01T07:31:11;4.22;;;2.50;;
11303;SDS011;5707;49.588;12.148;2023-02-01T07:33:43;2.67;;;1.80;;
11303;SDS011;5707;49.588;12.148;2023-02-01T07:36:12;4.50;;;2.10;;
11303;SDS011;5707;49.588;12.148;2023-02-01T07:38:40;4.57;;;2.80;;
11303;SDS011;5707;49.588;12.148;2023-02-01T07:41:06;5.93;;;3.55;;
11303;SDS011;5707;49.588;12.148;2023-02-01T07:43:33;3.90;;;2.10;;
11303;SDS011;5707;49.588;12.148;2023-02-01T07:45:59;4.45;;;2.67;;
11303;SDS011;5707;49.588;12.148;2023-02-01T07:48:25;4.68;;;1.95;;
11303;SDS011;5707;49.588;12.148;2023-02-01T07:50:58;4.32;;;3.08;;
11303;SDS011;5707;49.588;12.148;2023-02-01T07:53:23;4.95;;;2.30;;
11303;SDS011;5707;49.588;12.148;2023-02-01T07:55:49;4.60;;;2.85;;
11303;SDS011;5707;49.588;12.148;2023-02-01T07:58:14;3.90;;;2.20;;
11303;SDS011;5707;49.588;12.148;2023-02-01T08:00:40;2.78;;;1.92;;
11303;SDS011;5707;49.588;12.148;2023-02-01T08:03:24;7.43;;;1.70;;
11303;SDS011;5707;49.588;12.148;2023-02-01T08:05:58;3.97;;;1.90;;
11303;SDS011;5707;49.588;12.148;2023-02-01T08:08:24;5.63;;;2.13;;
11303;SDS011;5707;49.588;12.148;2023-02-01T08:10:50;4.05;;;1.67;;
11303;SDS011;5707;49.588;12.148;2023-02-01T08:13:15;1.98;;;1.77;;
11303;SDS011;5707;49.588;12.148;2023-02-01T08:15:41;1.92;;;1.50;;
11303;SDS011;5707;49.588;12.148;2023-02-01T08:18:07;3.92;;;1.63;;
11303;SDS011;5707;49.588;12.148;2023-02-01T08:20:34;5.80;;;3.47;;
11303;SDS011;5707;49.588;12.148;2023-02-01T08:23:01;4.72;;;2.08;;
11303;SDS011;5707;49.588;12.148;2023-02-01T08:25:27;3.25;;;1.58;;
11303;SDS011;5707;49.588;12.148;2023-02-01T08:27:53;3.70;;;1.30;;
11303;SDS011;5707;49.588;12.148;2023-02-01T08:30:19;1.85;;;1.02;;
11303;SDS011;5707;49.588;12.148;2023-02-01T08:32:45;3.50;;;1.30;;
11303;SDS011;5707;49.588;12.148;2023-02-01T08:35:11;1.83;;;1.42;;
11303;SDS011;5707;49.588;12.148;2023-02-01T08:37:36;4.18;;;1.25;;
11303;SDS011;5707;49.588;12.148;2023-02-01T08:40:02;3.58;;;1.40;;
11303;SDS011;5707;49.588;12.148;2023-02-01T08:42:29;3.30;;;1.25;;
11303;SDS011;5707;49.588;12.148;2023-02-01T08:45:13;1.90;;;1.35;;
11303;SDS011;5707;49.588;12.148;2023-02-01T08:47:39;2.38;;;1.20;;
11303;SDS011;5707;49.588;12.148;2023-02-01T08:50:04;1.33;;;1.10;;
11303;SDS011;5707;49.588;12.148;2023-02-01T08:52:30;1.63;;;1.10;;
11303;SDS011;5707;49.588;12.148;2023-02-01T08:54:56;1.35;;;0.85;;
11303;SDS011;5707;49.588;12.148;2023-02-01T08:57:22;1.47;;;1.23;;
11303;SDS011;5707;49.588;12.148;2023-02-01T08:59:47;2.85;;;1.77;;
11303;SDS011;5707;49.588;12.148;2023-02-01T09:02:13;3.92;;;1.33;;
11303;SDS011;5707;49.588;12.148;2023-02-01T09:04:40;3.65;;;1.50;;
11303;SDS011;5707;49.588;12.148;2023-02-01T09:07:06;2.63;;;1.80;;
11303;SDS011;5707;49.588;12.148;2023-02-01T09:09:33;2.45;;;1.80;;
11303;SDS011;5707;49.588;12.148;2023-02-01T09:11:58;3.15;;;0.90;;
11303;SDS011;5707;49.588;12.148;2023-02-01T09:14:24;4.75;;;1.63;;
11303;SDS011;5707;49.588;12.148;2023-02-01T09:16:49;2.40;;;1.30;;
11303;SDS011;5707;49.588;12.148;2023-02-01T09:19:15;2.53;;;1.17;;
11303;SDS011;5707;49.588;12.148;2023-02-01T09:21:40;3.38;;;1.73;;
11303;SDS011;5707;49.588;12.148;2023-02-01T09:24:06;3.13;;;1.55;;
11303;SDS011;5707;49.588;12.148;2023-02-01T09:26:33;5.28;;;1.60;;
11303;SDS011;5707;49.588;12.148;2023-02-01T09:28:59;3.22;;;1.30;;
11303;SDS011;5707;49.588;12.148;2023-02-01T09:31:25;3.72;;;1.25;;
11303;SDS011;5707;49.588;12.148;2023-02-01T09:33:51;2.83;;;1.25;;
11303;SDS011;5707;49.588;12.148;2023-02-01T09:36:16;2.22;;;1.05;;
11303;SDS011;5707;49.588;12.148;2023-02-01T09:38:44;4.28;;;1.95;;
11303;SDS011;5707;49.588;12.148;2023-02-01T09:46:43;3.58;;;1.67;;
11303;SDS011;5707;49.588;12.148;2023-02-01T09:49:12;3.85;;;1.55;;
11303;SDS011;5707;49.588;12.148;2023-02-01T09:51:44;2.22;;;1.33;;
11303;SDS011;5707;49.588;12.148;2023-02-01T09:54:14;2.60;;;1.67;;
11303;SDS011;5707;49.588;12.148;2023-02-01T10:01:56;3.03;;;1.58;;
11303;SDS011;5707;49.588;12.148;2023-02-01T10:04:22;3.33;;;2.00;;
11303;SDS011;5707;49.588;12.148;2023-02-01T10:19:48;5.63;;;1.80;;
11303;SDS011;5707;49.588;12.148;2023-02-01T10:22:29;3.42;;;1.40;;
11303;SDS011;5707;49.588;12.148;2023-02-01T10:25:19;6.40;;;2.70;;
11303;SDS011;5707;49.588;12.148;2023-02-01T10:28:01;3.95;;;1.27;;
11303;SDS011;5707;49.588;12.148;2023-02-01T10:30:34;3.80;;;1.52;;
11303;SDS011;5707;49.588;12.148;2023-02-01T10:35:43;2.10;;;1.27;;
11303;SDS011;5707;49.588;12.148;2023-02-01T10:38:24;3.40;;;1.23;;
11303;SDS011;5707;49.588;12.148;2023-02-01T10:40:54;1.67;;;1.40;;
11303;SDS011;5707;49.588;12.148;2023-02-01T10:43:24;3.53;;;1.75;;
11303;SDS011;5707;49.588;12.148;2023-02-01T10:45:49;2.85;;;1.17;;
11303;SDS011;5707;49.588;12.148;2023-02-01T10:48:15;2.05;;;1.00;;
11303;SDS011;5707;49.588;12.148;2023-02-01T10:50:49;4.07;;;1.05;;
11303;SDS011;5707;49.588;12.148;2023-02-01T10:53:57;2.15;;;1.30;;
11303;SDS011;5707;49.588;12.148;2023-02-01T10:56:27;3.13;;;1.42;;
11303;SDS011;5707;49.588;12.148;2023-02-01T10:59:03;3.20;;;1.40;;
11303;SDS011;5707;49.588;12.148;2023-02-01T11:01:33;2.38;;;1.25;;
11303;SDS011;5707;49.588;12.148;2023-02-01T11:04:03;3.25;;;1.63;;
11303;SDS011;5707;49.588;12.148;2023-02-01T11:06:31;3.22;;;1.50;;
11303;SDS011;5707;49.588;12.148;2023-02-01T11:09:09;4.70;;;1.60;;
11303;SDS011;5707;49.588;12.148;2023-02-01T11:12:01;2.58;;;1.40;;
11303;SDS011;5707;49.588;12.148;2023-02-01T11:14:35;4.15;;;1.90;;
11303;SDS011;5707;49.588;12.148;2023-02-01T11:19:56;2.00;;;1.33;;
11303;SDS011;5707;49.588;12.148;2023-02-01T11:22:24;6.30;;;1.48;;
11303;SDS011;5707;49.588;12.148;2023-02-01T11:24:52;2.72;;;1.52;;
11303;SDS011;5707;49.588;12.148;2023-02-01T11:27:19;3.90;;;0.90;;
11303;SDS011;5707;49.588;12.148;2023-02-01T11:29:48;3.08;;;1.60;;
11303;SDS011;5707;49.588;12.148;2023-02-01T11:32:17;3.05;;;1.48;;
11303;SDS011;5707;49.588;12.148;2023-02-01T11:34:47;4.18;;;1.75;;
11303;SDS011;5707;49.588;12.148;2023-02-01T11:39:58;3.00;;;1.25;;
11303;SDS011;5707;49.588;12.148;2023-02-01T11:42:26;5.95;;;1.95;;
11303;SDS011;5707;49.588;12.148;2023-02-01T11:47:41;4.72;;;1.75;;
11303;SDS011;5707;49.588;12.148;2023-02-01T11:55:48;6.93;;;1.45;;
11303;SDS011;5707;49.588;12.148;2023-02-01T12:01:12;3.35;;;1.73;;
11303;SDS011;5707;49.588;12.148;2023-02-01T12:06:55;2.88;;;1.60;;
11303;SDS011;5707;49.588;12.148;2023-02-01T12:12:16;4.93;;;1.70;;
11303;SDS011;5707;49.588;12.148;2023-02-01T12:20:22;3.38;;;1.67;;
11303;SDS011;5707;49.588;12.148;2023-02-01T12:25:57;3.25;;;1.77;;
11303;SDS011;5707;49.588;12.148;2023-02-01T12:28:44;3.65;;;1.60;;
11303;SDS011;5707;49.588;12.148;2023-02-01T12:42:36;3.45;;;1.48;;
11303;SDS011;5707;49.588;12.148;2023-02-01T12:45:35;4.57;;;2.47;;
11303;SDS011;5707;49.588;12.148;2023-02-01T12:50:51;6.93;;;3.60;;
11303;SDS011;5707;49.588;12.148;2023-02-01T12:53:23;4.80;;;3.03;;
11303;SDS011;5707;49.588;12.148;2023-02-01T12:55:57;6.40;;;3.65;;
11303;SDS011;5707;49.588;12.148;2023-02-01T13:01:27;4.20;;;1.52;;
11303;SDS011;5707;49.588;12.148;2023-02-01T13:04:05;4.72;;;1.50;;
11303;SDS011;5707;49.588;12.148;2023-02-01T13:06:54;2.97;;;1.33;;
11303;SDS011;5707;49.588;12.148;2023-02-01T13:09:28;4.32;;;1.40;;
11303;SDS011;5707;49.588;12.148;2023-02-01T13:17:48;2.92;;;1.60;;
11303;SDS011;5707;49.588;12.148;2023-02-01T13:20:19;4.93;;;1.52;;
11303;SDS011;5707;49.588;12.148;2023-02-01T13:22:54;4.35;;;2.17;;
11303;SDS011;5707;49.588;12.148;2023-02-01T13:28:13;3.63;;;1.83;;
11303;SDS011;5707;49.588;12.148;2023-02-01T13:44:46;3.88;;;1.30;;
11303;SDS011;5707;49.588;12.148;2023-02-01T13:47:18;2.97;;;1.42;;
11303;SDS011;5707;49.588;12.148;2023-02-01T13:49:50;5.47;;;1.73;;
11303;SDS011;5707;49.588;12.148;2023-02-01T13:52:24;4.57;;;1.30;;
11303;SDS011;5707;49.588;12.148;2023-02-01T13:54:50;3.50;;;1.83;;
11303;SDS011;5707;49.588;12.148;2023-02-01T13:57:50;4.40;;;1.85;;
11303;SDS011;5707;49.588;12.148;2023-02-01T14:15:39;4.07;;;2.28;;
11303;SDS011;5707;49.588;12.148;2023-02-01T14:26:48;3.92;;;1.63;;
11303;SDS011;5707;49.588;12.148;2023-02-01T14:35:05;3.17;;;1.27;;
11303;SDS011;5707;49.588;12.148;2023-02-01T14:37:27;3.42;;;1.30;;
11303;SDS011;5707;49.588;12.148;2023-02-01T14:39:59;3.13;;;1.48;;
11303;SDS011;5707;49.588;12.148;2023-02-01T14:44:53;4.70;;;2.50;;
11303;SDS011;5707;49.588;12.148;2023-02-01T14:49:54;6.00;;;2.08;;
11303;SDS011;5707;49.588;12.148;2023-02-01T14:52:23;3.80;;;2.05;;
11303;SDS011;5707;49.588;12.148;2023-02-01T14:54:59;4.50;;;1.92;;
11303;SDS011;5707;49.588;12.148;2023-02-01T14:57:31;3.47;;;1.70;;
11303;SDS011;5707;49.588;12.148;2023-02-01T15:00:34;5.30;;;2.03;;
11303;SDS011;5707;49.588;12.148;2023-02-01T15:02:54;6.10;;;3.03;;
11303;SDS011;5707;49.588;12.148;2023-02-01T15:05:40;4.55;;;1.90;;
11303;SDS011;5707;49.588;12.148;2023-02-01T15:08:15;4.45;;;1.70;;
11303;SDS011;5707;49.588;12.148;2023-02-01T15:10:44;4.57;;;1.73;;
11303;SDS011;5707;49.588;12.148;2023-02-01T15:13:17;5.07;;;1.63;;
11303;SDS011;5707;49.588;12.148;2023-02-01T15:16:00;4.60;;;1.70;;
11303;SDS011;5707;49.588;12.148;2023-02-01T15:18:27;4.50;;;2.20;;
11303;SDS011;5707;49.588;12.148;2023-02-01T15:20:59;4.03;;;2.10;;
11303;SDS011;5707;49.588;12.148;2023-02-01T15:23:26;4.85;;;1.70;;
11303;SDS011;5707;49.588;12.148;2023-02-01T15:25:52;2.97;;;1.75;;
11303;SDS011;5707;49.588;12.148;2023-02-01T15:28:18;3.13;;;1.75;;
11303;SDS011;5707;49.588;12.148;2023-02-01T15:33:23;3.72;;;2.10;;
11303;SDS011;5707;49.588;12.148;2023-02-01T15:35:51;3.22;;;1.77;;
11303;SDS011;5707;49.588;12.148;2023-02-01T15:38:33;4.30;;;1.67;;
11303;SDS011;5707;49.588;12.148;2023-02-01T15:41:11;4.18;;;1.67;;
11303;SDS011;5707;49.588;12.148;2023-02-01T15:43:47;3.92;;;1.63;;
11303;SDS011;5707;49.588;12.148;2023-02-01T15:49:03;5.07;;;2.10;;
11303;SDS011;5707;49.588;12.148;2023-02-01T15:51:39;7.03;;;1.90;;
11303;SDS011;5707;49.588;12.148;2023-02-01T15:54:17;5.90;;;2.22;;
11303;SDS011;5707;49.588;12.148;2023-02-01T15:56:49;3.10;;;1.80;;
11303;SDS011;5707;49.588;12.148;2023-02-01T15:59:19;3.30;;;1.73;;
11303;SDS011;5707;49.588;12.148;2023-02-01T16:01:50;3.83;;;1.63;;
11303;SDS011;5707;49.588;12.148;2023-02-01T16:04:21;8.27;;;1.80;;
11303;SDS011;5707;49.588;12.148;2023-02-01T16:06:56;2.92;;;1.58;;
11303;SDS011;5707;49.588;12.148;2023-02-01T16:09:34;3.42;;;1.77;;
11303;SDS011;5707;49.588;12.148;2023-02-01T16:12:24;5.05;;;2.20;;
11303;SDS011;5707;49.588;12.148;2023-02-01T16:14:55;6.30;;;1.90;;
11303;SDS011;5707;49.588;12.148;2023-02-01T16:17:21;5.95;;;2.08;;
11303;SDS011;5707;49.588;12.148;2023-02-01T16:19:46;4.07;;;1.55;;
11303;SDS011;5707;49.588;12.148;2023-02-01T16:22:12;2.40;;;1.48;;
11303;SDS011;5707;49.588;12.148;2023-02-01T16:24:37;3.70;;;1.38;;
11303;SDS011;5707;49.588;12.148;2023-02-01T16:27:03;3.70;;;1.92;;
11303;SDS011;5707;49.588;12.148;2023-02-01T16:29:31;6.07;;;2.22;;
11303;SDS011;5707;49.588;12.148;2023-02-01T16:31:58;4.30;;;2.10;;
11303;SDS011;5707;49.588;12.148;2023-02-01T16:34:24;6.55;;;1.92;;
11303;SDS011;5707;49.588;12.148;2023-02-01T16:36:50;5.22;;;2.42;;
11303;SDS011;5707;49.588;12.148;2023-02-01T16:39:17;5.10;;;2.08;;
11303;SDS011;5707;49.588;12.148;2023-02-01T16:41:44;4.32;;;1.73;;
11303;SDS011;5707;49.588;12.148;2023-02-01T16:44:10;5.50;;;2.65;;
11303;SDS011;5707;49.588;12.148;2023-02-01T16:46:38;5.35;;;2.13;;
11303;SDS011;5707;49.588;12.148;2023-02-01T16:49:05;7.30;;;2.88;;
11303;SDS011;5707;49.588;12.148;2023-02-01T16:51:45;5.78;;;2.42;;
11303;SDS011;5707;49.588;12.148;2023-02-01T16:54:12;5.10;;;2.03;;
11303;SDS011;5707;49.588;12.148;2023-02-01T16:56:37;5.00;;;2.17;;
11303;SDS011;5707;49.588;12.148;2023-02-01T16:59:06;5.93;;;2.05;;
11303;SDS011;5707;49.588;12.148;2023-02-01T17:01:33;4.03;;;1.65;;
11303;SDS011;5707;49.588;12.148;2023-02-01T17:03:59;1.75;;;1.00;;
11303;SDS011;5707;49.588;12.148;2023-02-01T17:06:24;4.25;;;1.90;;
11303;SDS011;5707;49.588;12.148;2023-02-01T17:08:53;5.30;;;2.00;;
11303;SDS011;5707;49.588;12.148;2023-02-01T17:11:20;4.50;;;1.95;;
11303;SDS011;5707;49.588;12.148;2023-02-01T17:13:46;4.15;;;2.40;;
11303;SDS011;5707;49.588;12.148;2023-02-01T17:16:15;4.32;;;2.20;;
11303;SDS011;5707;49.588;12.148;2023-02-01T17:18:44;6.40;;;2.30;;
11303;SDS011;5707;49.588;12.148;2023-02-01T17:21:12;8.48;;;2.58;;
11303;SDS011;5707;49.588;12.148;2023-02-01T17:23:38;6.10;;;2.00;;
11303;SDS011;5707;49.588;12.148;2023-02-01T17:26:04;6.38;;;2.00;;
11303;SDS011;5707;49.588;12.148;2023-02-01T17:28:29;6.28;;;2.42;;
11303;SDS011;5707;49.588;12.148;2023-02-01T17:30:55;6.55;;;2.08;;
11303;SDS011;5707;49.588;12.148;2023-02-01T17:35:54;5.90;;;2.45;;
11303;SDS011;5707;49.588;12.148;2023-02-01T17:38:21;3.85;;;2.35;;
11303;SDS011;5707;49.588;12.148;2023-02-01T17:40:47;4.88;;;2.47;;
11303;SDS011;5707;49.588;12.148;2023-02-01T17:43:13;5.07;;;2.25;;
11303;SDS011;5707;49.588;12.148;2023-02-01T17:45:45;5.60;;;2.00;;
11303;SDS011;5707;49.588;12.148;2023-02-01T17:48:17;3.53;;;1.63;;
11303;SDS011;5707;49.588;12.148;2023-02-01T17:50:44;7.20;;;2.20;;